sensor_id;sensor_type;location;lat;lon;timestamp;P1;durP1;ratioP1;P2;durP2;ratioP2
12956;SDS011;6543;48.836;10.092;2023-02-01T00:01:59;5.00;;;3.80;;
12956;SDS011;6543;48.836;10.092;2023-02-01T00:04:26;7.33;;;4.90;;
12956;SDS011;6543;48.836;10.092;2023-02-01T00:06:53;5.23;;;4.27;;
12956;SDS011;6543;48.836;10.092;2023-02-01T00:09:19;9.67;;;4.87;;
12956;SDS011;6543;48.836;10.092;2023-02-01T00:11:46;5.43;;;3.73;;
12956;SDS011;6543;48.836;10.092;2023-02-01T00:14:14;8.57;;;4.87;;
12956;SDS011;6543;48.836;10.092;2023-02-01T00:16:42;5.67;;;3.97;;
12956;SDS011;6543;48.836;10.092;2023-02-01T00:19:10;5.03;;;4.13;;
12956;SDS011;6543;48.836;10.092;2023-02-01T00:21:38;6.47;;;3.73;;
12956;SDS011;6543;48.836;10.092;2023-02-01T00:24:06;5.53;;;4.10;;
12956;SDS011;6543;48.836;10.092;2023-02-01T00:26:36;5.00;;;3.63;;
12956;SDS011;6543;48.836;10.092;2023-02-01T00:29:05;4.73;;;4.00;;
12956;SDS011;6543;48.836;10.092;2023-02-01T00:31:34;3.87;;;3.30;;
12956;SDS011;6543;48.836;10.092;2023-02-01T00:34:01;4.40;;;3.60;;
12956;SDS011;6543;48.836;10.092;2023-02-01T00:36:27;5.27;;;3.43;;
12956;SDS011;6543;48.836;10.092;2023-02-01T00:38:55;3.20;;;2.67;;
12956;SDS011;6543;48.836;10.092;2023-02-01T00:41:22;3.67;;;2.87;;
12956;SDS011;6543;48.836;10.092;2023-02-01T00:43:49;4.00;;;2.20;;
12956;SDS011;6543;48.836;10.092;2023-02-01T00:46:17;4.83;;;2.83;;
12956;SDS011;6543;48.836;10.092;2023-02-01T00:48:45;5.67;;;3.30;;
12956;SDS011;6543;48.836;10.092;2023-02-01T00:51:13;3.97;;;3.03;;
12956;SDS011;6543;48.836;10.092;2023-02-01T00:53:42;4.07;;;2.67;;
12956;SDS011;6543;48.836;10.092;2023-02-01T00:56:09;3.07;;;2.67;;
12956;SDS011;6543;48.836;10.092;2023-02-01T00:58:36;4.03;;;2.90;;
12956;SDS011;6543;48.836;10.092;2023-02-01T01:01:04;4.63;;;2.03;;
12956;SDS011;6543;48.836;10.092;2023-02-01T01:03:32;3.33;;;2.33;;
12956;SDS011;6543;48.836;10.092;2023-02-01T01:06:03;4.53;;;2.63;;
12956;SDS011;6543;48.836;10.092;2023-02-01T01:08:31;2.90;;;2.40;;
12956;SDS011;6543;48.836;10.092;2023-02-01T01:10:58;3.43;;;2.40;;
12956;SDS011;6543;48.836;10.092;2023-02-01T01:13:29;2.33;;;2.13;;
12956;SDS011;6543;48.836;10.092;2023-02-01T01:15:56;2.43;;;1.77;;
12956;SDS011;6543;48.836;10.092;2023-02-01T01:18:27;3.87;;;2.07;;
12956;SDS011;6543;48.836;10.092;2023-02-01T01:20:54;3.40;;;2.33;;
12956;SDS011;6543;48.836;10.092;2023-02-01T01:23:22;2.17;;;1.90;;
12956;SDS011;6543;48.836;10.092;2023-02-01T01:25:49;4.50;;;1.57;;
12956;SDS011;6543;48.836;10.092;2023-02-01T01:28:16;2.10;;;1.30;;
12956;SDS011;6543;48.836;10.092;2023-02-01T01:30:43;3.57;;;2.43;;
12956;SDS011;6543;48.836;10.092;2023-02-01T01:33:10;2.37;;;1.87;;
12956;SDS011;6543;48.836;10.092;2023-02-01T01:35:37;2.00;;;1.90;;
12956;SDS011;6543;48.836;10.092;2023-02-01T01:38:04;2.43;;;1.80;;
12956;SDS011;6543;48.836;10.092;2023-02-01T01:40:32;2.00;;;1.53;;
12956;SDS011;6543;48.836;10.092;2023-02-01T01:42:59;1.93;;;1.43;;
12956;SDS011;6543;48.836;10.092;2023-02-01T01:45:26;2.00;;;1.80;;
12956;SDS011;6543;48.836;10.092;2023-02-01T01:47:55;2.43;;;1.73;;
12956;SDS011;6543;48.836;10.092;2023-02-01T01:50:24;2.80;;;1.87;;
12956;SDS011;6543;48.836;10.092;2023-02-01T01:52:55;1.53;;;1.30;;
12956;SDS011;6543;48.836;10.092;2023-02-01T01:55:25;1.60;;;1.47;;
12956;SDS011;6543;48.836;10.092;2023-02-01T01:57:55;2.37;;;1.97;;
12956;SDS011;6543;48.836;10.092;2023-02-01T02:00:25;5.43;;;1.40;;
12956;SDS011;6543;48.836;10.092;2023-02-01T02:02:53;1.50;;;1.40;;
12956;SDS011;6543;48.836;10.092;2023-02-01T02:05:24;1.37;;;1.10;;
12956;SDS011;6543;48.836;10.092;2023-02-01T02:07:53;1.13;;;1.00;;
12956;SDS011;6543;48.836;10.092;2023-02-01T02:10:25;1.03;;;1.03;;
12956;SDS011;6543;48.836;10.092;2023-02-01T02:13:15;1.47;;;1.37;;
12956;SDS011;6543;48.836;10.092;2023-02-01T02:15:45;2.00;;;1.43;;
12956;SDS011;6543;48.836;10.092;2023-02-01T02:18:19;1.60;;;1.50;;
12956;SDS011;6543;48.836;10.092;2023-02-01T02:27:11;1.03;;;0.93;;
12956;SDS011;6543;48.836;10.092;2023-02-01T02:36:09;1.60;;;1.23;;
12956;SDS011;6543;48.836;10.092;2023-02-01T02:38:44;2.90;;;1.70;;
12956;SDS011;6543;48.836;10.092;2023-02-01T02:41:19;1.57;;;1.47;;
12956;SDS011;6543;48.836;10.092;2023-02-01T02:44:12;1.23;;;1.17;;
12956;SDS011;6543;48.836;10.092;2023-02-01T02:47:02;1.10;;;1.10;;
12956;SDS011;6543;48.836;10.092;2023-02-01T02:49:54;2.10;;;1.10;;
12956;SDS011;6543;48.836;10.092;2023-02-01T02:52:44;1.93;;;1.17;;
12956;SDS011;6543;48.836;10.092;2023-02-01T02:55:36;2.73;;;1.17;;
12956;SDS011;6543;48.836;10.092;2023-02-01T02:58:05;1.23;;;1.03;;
12956;SDS011;6543;48.836;10.092;2023-02-01T03:00:50;2.30;;;1.63;;
12956;SDS011;6543;48.836;10.092;2023-02-01T03:03:36;1.07;;;1.00;;
12956;SDS011;6543;48.836;10.092;2023-02-01T03:06:23;2.37;;;1.30;;
12956;SDS011;6543;48.836;10.092;2023-02-01T03:08:51;1.20;;;1.10;;
12956;SDS011;6543;48.836;10.092;2023-02-01T03:11:22;1.70;;;1.33;;
12956;SDS011;6543;48.836;10.092;2023-02-01T03:14:10;1.50;;;1.23;;
12956;SDS011;6543;48.836;10.092;2023-02-01T03:16:40;1.53;;;1.13;;
12956;SDS011;6543;48.836;10.092;2023-02-01T03:19:13;1.77;;;1.40;;
12956;SDS011;6543;48.836;10.092;2023-02-01T03:21:45;2.03;;;1.60;;
12956;SDS011;6543;48.836;10.092;2023-02-01T03:24:17;1.20;;;0.90;;
12956;SDS011;6543;48.836;10.092;2023-02-01T03:26:48;1.00;;;1.00;;
12956;SDS011;6543;48.836;10.092;2023-02-01T03:29:21;0.90;;;0.90;;
12956;SDS011;6543;48.836;10.092;2023-02-01T03:31:52;1.10;;;0.90;;
12956;SDS011;6543;48.836;10.092;2023-02-01T03:34:19;1.13;;;1.07;;
12956;SDS011;6543;48.836;10.092;2023-02-01T03:36:49;1.07;;;0.90;;
12956;SDS011;6543;48.836;10.092;2023-02-01T03:39:19;1.57;;;1.00;;
12956;SDS011;6543;48.836;10.092;2023-02-01T03:41:51;1.57;;;1.10;;
12956;SDS011;6543;48.836;10.092;2023-02-01T03:44:22;1.07;;;1.00;;
12956;SDS011;6543;48.836;10.092;2023-02-01T03:46:52;0.87;;;0.87;;
12956;SDS011;6543;48.836;10.092;2023-02-01T03:49:23;3.10;;;1.00;;
12956;SDS011;6543;48.836;10.092;2023-02-01T03:51:55;1.40;;;0.90;;
12956;SDS011;6543;48.836;10.092;2023-02-01T03:54:24;0.70;;;0.70;;
12956;SDS011;6543;48.836;10.092;2023-02-01T03:56:54;1.53;;;0.80;;
12956;SDS011;6543;48.836;10.092;2023-02-01T03:59:23;1.60;;;0.93;;
12956;SDS011;6543;48.836;10.092;2023-02-01T04:01:50;1.83;;;1.20;;
12956;SDS011;6543;48.836;10.092;2023-02-01T04:04:18;1.07;;;0.97;;
12956;SDS011;6543;48.836;10.092;2023-02-01T04:06:45;1.13;;;1.07;;
12956;SDS011;6543;48.836;10.092;2023-02-01T04:09:14;1.07;;;0.97;;
12956;SDS011;6543;48.836;10.092;2023-02-01T04:11:41;1.20;;;1.10;;
12956;SDS011;6543;48.836;10.092;2023-02-01T04:14:08;1.27;;;0.90;;
12956;SDS011;6543;48.836;10.092;2023-02-01T04:16:35;0.83;;;0.83;;
12956;SDS011;6543;48.836;10.092;2023-02-01T04:19:02;0.87;;;0.87;;
12956;SDS011;6543;48.836;10.092;2023-02-01T04:21:29;1.00;;;1.00;;
12956;SDS011;6543;48.836;10.092;2023-02-01T04:23:56;1.20;;;0.80;;
12956;SDS011;6543;48.836;10.092;2023-02-01T04:26:24;1.07;;;1.03;;
12956;SDS011;6543;48.836;10.092;2023-02-01T04:28:51;1.20;;;1.10;;
12956;SDS011;6543;48.836;10.092;2023-02-01T04:31:18;1.40;;;1.17;;
12956;SDS011;6543;48.836;10.092;2023-02-01T04:33:50;1.20;;;1.10;;
12956;SDS011;6543;48.836;10.092;2023-02-01T04:36:17;1.10;;;1.10;;
12956;SDS011;6543;48.836;10.092;2023-02-01T04:38:44;2.67;;;1.10;;
12956;SDS011;6543;48.836;10.092;2023-02-01T04:41:11;0.90;;;0.73;;
12956;SDS011;6543;48.836;10.092;2023-02-01T04:43:39;1.60;;;1.30;;
12956;SDS011;6543;48.836;10.092;2023-02-01T04:46:06;0.87;;;0.87;;
12956;SDS011;6543;48.836;10.092;2023-02-01T04:48:33;0.67;;;0.60;;
12956;SDS011;6543;48.836;10.092;2023-02-01T04:51:00;2.50;;;1.20;;
12956;SDS011;6543;48.836;10.092;2023-02-01T04:53:27;1.47;;;1.33;;
12956;SDS011;6543;48.836;10.092;2023-02-01T04:55:55;1.07;;;0.97;;
12956;SDS011;6543;48.836;10.092;2023-02-01T04:58:21;2.50;;;1.37;;
12956;SDS011;6543;48.836;10.092;2023-02-01T05:00:50;1.23;;;1.13;;
12956;SDS011;6543;48.836;10.092;2023-02-01T05:03:17;1.87;;;1.30;;
12956;SDS011;6543;48.836;10.092;2023-02-01T05:05:44;1.30;;;1.20;;
12956;SDS011;6543;48.836;10.092;2023-02-01T05:08:12;1.50;;;1.30;;
12956;SDS011;6543;48.836;10.092;2023-02-01T05:10:39;1.37;;;1.27;;
12956;SDS011;6543;48.836;10.092;2023-02-01T05:13:07;2.47;;;1.33;;
12956;SDS011;6543;48.836;10.092;2023-02-01T05:15:53;1.30;;;1.10;;
12956;SDS011;6543;48.836;10.092;2023-02-01T05:18:20;1.33;;;1.00;;
12956;SDS011;6543;48.836;10.092;2023-02-01T05:20:47;1.37;;;1.27;;
12956;SDS011;6543;48.836;10.092;2023-02-01T05:23:13;1.50;;;1.40;;
12956;SDS011;6543;48.836;10.092;2023-02-01T05:25:40;1.20;;;1.10;;
12956;SDS011;6543;48.836;10.092;2023-02-01T05:28:07;2.07;;;1.30;;
12956;SDS011;6543;48.836;10.092;2023-02-01T05:30:34;1.60;;;1.20;;
12956;SDS011;6543;48.836;10.092;2023-02-01T05:33:02;1.60;;;1.50;;
12956;SDS011;6543;48.836;10.092;2023-02-01T05:35:29;1.37;;;1.10;;
12956;SDS011;6543;48.836;10.092;2023-02-01T05:37:56;1.53;;;1.43;;
12956;SDS011;6543;48.836;10.092;2023-02-01T05:40:23;1.50;;;1.40;;
12956;SDS011;6543;48.836;10.092;2023-02-01T05:42:50;1.20;;;1.10;;
12956;SDS011;6543;48.836;10.092;2023-02-01T05:45:17;1.37;;;1.20;;
12956;SDS011;6543;48.836;10.092;2023-02-01T05:47:43;1.07;;;0.97;;
12956;SDS011;6543;48.836;10.092;2023-02-01T05:50:11;1.40;;;1.30;;
12956;SDS011;6543;48.836;10.092;2023-02-01T05:52:38;1.50;;;1.40;;
12956;SDS011;6543;48.836;10.092;2023-02-01T05:55:05;1.30;;;1.20;;
12956;SDS011;6543;48.836;10.092;2023-02-01T05:57:33;1.10;;;1.00;;
12956;SDS011;6543;48.836;10.092;2023-02-01T05:59:59;3.33;;;1.30;;
12956;SDS011;6543;48.836;10.092;2023-02-01T06:02:26;1.50;;;1.40;;
12956;SDS011;6543;48.836;10.092;2023-02-01T06:04:53;1.00;;;0.90;;
12956;SDS011;6543;48.836;10.092;2023-02-01T06:07:21;1.30;;;1.20;;
12956;SDS011;6543;48.836;10.092;2023-02-01T06:09:48;1.27;;;1.17;;
12956;SDS011;6543;48.836;10.092;2023-02-01T06:12:15;1.80;;;1.60;;
12956;SDS011;6543;48.836;10.092;2023-02-01T06:14:42;1.13;;;0.73;;
12956;SDS011;6543;48.836;10.092;2023-02-01T06:17:09;1.27;;;1.13;;
12956;SDS011;6543;48.836;10.092;2023-02-01T06:19:36;1.70;;;1.40;;
12956;SDS011;6543;48.836;10.092;2023-02-01T06:22:05;1.97;;;1.20;;
12956;SDS011;6543;48.836;10.092;2023-02-01T06:24:33;1.80;;;1.70;;
12956;SDS011;6543;48.836;10.092;2023-02-01T06:27:00;1.13;;;1.00;;
12956;SDS011;6543;48.836;10.092;2023-02-01T06:29:27;1.67;;;1.53;;
12956;SDS011;6543;48.836;10.092;2023-02-01T06:31:54;2.33;;;1.50;;
12956;SDS011;6543;48.836;10.092;2023-02-01T06:34:20;1.97;;;1.17;;
12956;SDS011;6543;48.836;10.092;2023-02-01T06:36:49;1.30;;;1.20;;
12956;SDS011;6543;48.836;10.092;2023-02-01T06:39:16;1.80;;;1.27;;
12956;SDS011;6543;48.836;10.092;2023-02-01T06:41:45;1.50;;;1.30;;
12956;SDS011;6543;48.836;10.092;2023-02-01T06:44:12;1.40;;;1.17;;
12956;SDS011;6543;48.836;10.092;2023-02-01T06:46:39;5.47;;;1.97;;
12956;SDS011;6543;48.836;10.092;2023-02-01T06:49:05;1.53;;;1.33;;
12956;SDS011;6543;48.836;10.092;2023-02-01T06:51:32;1.80;;;1.33;;
12956;SDS011;6543;48.836;10.092;2023-02-01T06:53:59;4.47;;;2.03;;
12956;SDS011;6543;48.836;10.092;2023-02-01T06:56:27;1.53;;;0.93;;
12956;SDS011;6543;48.836;10.092;2023-02-01T06:58:55;1.43;;;1.00;;
12956;SDS011;6543;48.836;10.092;2023-02-01T07:01:22;1.70;;;1.60;;
12956;SDS011;6543;48.836;10.092;2023-02-01T07:03:49;2.17;;;1.60;;
12956;SDS011;6543;48.836;10.092;2023-02-01T07:06:17;1.50;;;1.40;;
12956;SDS011;6543;48.836;10.092;2023-02-01T07:08:44;2.10;;;1.20;;
12956;SDS011;6543;48.836;10.092;2023-02-01T07:11:11;2.00;;;1.30;;
12956;SDS011;6543;48.836;10.092;2023-02-01T07:13:40;3.33;;;0.80;;
12956;SDS011;6543;48.836;10.092;2023-02-01T07:16:09;1.57;;;1.37;;
12956;SDS011;6543;48.836;10.092;2023-02-01T07:18:37;1.40;;;1.30;;
12956;SDS011;6543;48.836;10.092;2023-02-01T07:21:05;2.07;;;1.30;;
12956;SDS011;6543;48.836;10.092;2023-02-01T07:23:32;1.47;;;1.37;;
12956;SDS011;6543;48.836;10.092;2023-02-01T07:25:59;3.20;;;1.53;;
12956;SDS011;6543;48.836;10.092;2023-02-01T07:28:29;2.47;;;1.60;;
12956;SDS011;6543;48.836;10.092;2023-02-01T07:31:01;1.87;;;1.27;;
12956;SDS011;6543;48.836;10.092;2023-02-01T07:33:30;1.87;;;1.53;;
12956;SDS011;6543;48.836;10.092;2023-02-01T07:35:57;1.83;;;1.60;;
12956;SDS011;6543;48.836;10.092;2023-02-01T07:38:26;1.50;;;1.00;;
12956;SDS011;6543;48.836;10.092;2023-02-01T07:40:56;1.97;;;1.37;;
12956;SDS011;6543;48.836;10.092;2023-02-01T07:43:23;1.33;;;1.23;;
12956;SDS011;6543;48.836;10.092;2023-02-01T07:45:50;1.10;;;1.10;;
12956;SDS011;6543;48.836;10.092;2023-02-01T07:48:18;3.43;;;2.10;;
12956;SDS011;6543;48.836;10.092;2023-02-01T07:50:46;2.53;;;1.87;;
12956;SDS011;6543;48.836;10.092;2023-02-01T07:53:13;1.93;;;1.67;;
12956;SDS011;6543;48.836;10.092;2023-02-01T07:55:40;3.63;;;2.10;;
12956;SDS011;6543;48.836;10.092;2023-02-01T07:58:07;2.13;;;1.57;;
12956;SDS011;6543;48.836;10.092;2023-02-01T08:00:34;2.20;;;1.20;;
12956;SDS011;6543;48.836;10.092;2023-02-01T08:03:18;3.13;;;1.77;;
12956;SDS011;6543;48.836;10.092;2023-02-01T08:05:46;3.07;;;1.83;;
12956;SDS011;6543;48.836;10.092;2023-02-01T08:08:13;3.07;;;2.00;;
12956;SDS011;6543;48.836;10.092;2023-02-01T08:10:40;2.70;;;2.10;;
12956;SDS011;6543;48.836;10.092;2023-02-01T08:13:07;2.50;;;2.30;;
12956;SDS011;6543;48.836;10.092;2023-02-01T08:15:34;3.00;;;2.03;;
12956;SDS011;6543;48.836;10.092;2023-02-01T08:18:01;1.90;;;1.80;;
12956;SDS011;6543;48.836;10.092;2023-02-01T08:20:28;2.10;;;1.43;;
12956;SDS011;6543;48.836;10.092;2023-02-01T08:22:56;1.43;;;1.33;;
12956;SDS011;6543;48.836;10.092;2023-02-01T08:25:23;4.63;;;1.80;;
12956;SDS011;6543;48.836;10.092;2023-02-01T08:27:50;2.87;;;1.80;;
12956;SDS011;6543;48.836;10.092;2023-02-01T08:30:18;1.77;;;1.50;;
12956;SDS011;6543;48.836;10.092;2023-02-01T08:32:45;1.83;;;1.70;;
12956;SDS011;6543;48.836;10.092;2023-02-01T08:35:12;2.03;;;1.50;;
12956;SDS011;6543;48.836;10.092;2023-02-01T08:37:39;1.73;;;1.47;;
12956;SDS011;6543;48.836;10.092;2023-02-01T08:40:08;3.13;;;1.43;;
12956;SDS011;6543;48.836;10.092;2023-02-01T08:42:36;3.30;;;2.00;;
12956;SDS011;6543;48.836;10.092;2023-02-01T08:45:17;1.63;;;1.47;;
12956;SDS011;6543;48.836;10.092;2023-02-01T08:47:45;4.23;;;1.77;;
12956;SDS011;6543;48.836;10.092;2023-02-01T08:50:15;1.53;;;1.37;;
12956;SDS011;6543;48.836;10.092;2023-02-01T08:52:43;3.17;;;1.80;;
12956;SDS011;6543;48.836;10.092;2023-02-01T08:55:12;1.30;;;1.20;;
12956;SDS011;6543;48.836;10.092;2023-02-01T08:57:40;2.83;;;2.07;;
12956;SDS011;6543;48.836;10.092;2023-02-01T09:00:08;4.03;;;1.77;;
12956;SDS011;6543;48.836;10.092;2023-02-01T09:02:38;3.17;;;2.23;;
12956;SDS011;6543;48.836;10.092;2023-02-01T09:05:05;2.43;;;1.90;;
12956;SDS011;6543;48.836;10.092;2023-02-01T09:07:33;3.77;;;2.40;;
12956;SDS011;6543;48.836;10.092;2023-02-01T09:10:00;3.23;;;1.80;;
12956;SDS011;6543;48.836;10.092;2023-02-01T09:12:30;4.30;;;1.90;;
12956;SDS011;6543;48.836;10.092;2023-02-01T09:14:58;4.20;;;2.07;;
12956;SDS011;6543;48.836;10.092;2023-02-01T09:17:25;2.70;;;1.97;;
12956;SDS011;6543;48.836;10.092;2023-02-01T09:19:52;3.03;;;1.90;;
12956;SDS011;6543;48.836;10.092;2023-02-01T09:22:19;2.37;;;2.17;;
12956;SDS011;6543;48.836;10.092;2023-02-01T09:24:45;4.53;;;2.10;;
12956;SDS011;6543;48.836;10.092;2023-02-01T09:27:12;3.17;;;2.70;;
12956;SDS011;6543;48.836;10.092;2023-02-01T09:29:41;3.57;;;2.20;;
12956;SDS011;6543;48.836;10.092;2023-02-01T09:32:08;3.25;;;1.80;;
12956;SDS011;6543;48.836;10.092;2023-02-01T09:34:35;5.43;;;2.30;;
12956;SDS011;6543;48.836;10.092;2023-02-01T09:37:02;2.23;;;1.90;;
12956;SDS011;6543;48.836;10.092;2023-02-01T09:39:28;4.43;;;2.10;;
12956;SDS011;6543;48.836;10.092;2023-02-01T09:41:58;4.17;;;1.77;;
12956;SDS011;6543;48.836;10.092;2023-02-01T09:44:38;7.43;;;2.97;;
12956;SDS011;6543;48.836;10.092;2023-02-01T09:47:19;5.23;;;2.13;;
12956;SDS011;6543;48.836;10.092;2023-02-01T09:49:50;3.30;;;1.93;;
12956;SDS011;6543;48.836;10.092;2023-02-01T09:52:23;3.40;;;1.87;;
12956;SDS011;6543;48.836;10.092;2023-02-01T09:54:55;2.37;;;1.57;;
12956;SDS011;6543;48.836;10.092;2023-02-01T09:57:28;5.07;;;3.00;;
12956;SDS011;6543;48.836;10.092;2023-02-01T10:00:09;3.00;;;1.07;;
12956;SDS011;6543;48.836;10.092;2023-02-01T10:02:43;3.73;;;1.90;;
12956;SDS011;6543;48.836;10.092;2023-02-01T10:05:12;4.43;;;1.53;;
12956;SDS011;6543;48.836;10.092;2023-02-01T10:07:42;3.73;;;1.90;;
12956;SDS011;6543;48.836;10.092;2023-02-01T10:10:17;4.67;;;2.13;;
12956;SDS011;6543;48.836;10.092;2023-02-01T10:13:02;4.03;;;2.00;;
12956;SDS011;6543;48.836;10.092;2023-02-01T10:15:48;4.60;;;1.53;;
12956;SDS011;6543;48.836;10.092;2023-02-01T10:18:35;6.70;;;2.73;;
12956;SDS011;6543;48.836;10.092;2023-02-01T10:21:09;8.80;;;1.73;;
12956;SDS011;6543;48.836;10.092;2023-02-01T10:23:45;3.17;;;1.27;;
12956;SDS011;6543;48.836;10.092;2023-02-01T10:26:21;2.83;;;1.80;;
12956;SDS011;6543;48.836;10.092;2023-02-01T10:28:50;1.73;;;1.30;;
12956;SDS011;6543;48.836;10.092;2023-02-01T10:31:21;6.73;;;1.73;;
12956;SDS011;6543;48.836;10.092;2023-02-01T10:33:52;4.23;;;1.80;;
12956;SDS011;6543;48.836;10.092;2023-02-01T10:36:25;3.10;;;1.83;;
12956;SDS011;6543;48.836;10.092;2023-02-01T10:38:57;2.83;;;2.07;;
12956;SDS011;6543;48.836;10.092;2023-02-01T10:41:25;2.33;;;1.80;;
12956;SDS011;6543;48.836;10.092;2023-02-01T10:43:57;2.07;;;1.30;;
12956;SDS011;6543;48.836;10.092;2023-02-01T10:46:26;3.77;;;1.80;;
12956;SDS011;6543;48.836;10.092;2023-02-01T10:48:55;5.53;;;2.03;;
12956;SDS011;6543;48.836;10.092;2023-02-01T10:51:26;3.67;;;1.60;;
12956;SDS011;6543;48.836;10.092;2023-02-01T10:53:55;4.90;;;1.03;;
12956;SDS011;6543;48.836;10.092;2023-02-01T10:56:26;2.53;;;1.33;;
12956;SDS011;6543;48.836;10.092;2023-02-01T10:58:59;5.30;;;2.17;;
12956;SDS011;6543;48.836;10.092;2023-02-01T11:01:30;3.63;;;1.57;;
12956;SDS011;6543;48.836;10.092;2023-02-01T11:04:00;4.63;;;1.77;;
12956;SDS011;6543;48.836;10.092;2023-02-01T11:06:30;3.43;;;1.50;;
12956;SDS011;6543;48.836;10.092;2023-02-01T11:09:00;4.50;;;2.13;;
12956;SDS011;6543;48.836;10.092;2023-02-01T11:11:52;7.50;;;2.40;;
12956;SDS011;6543;48.836;10.092;2023-02-01T11:14:25;7.37;;;2.73;;
12956;SDS011;6543;48.836;10.092;2023-02-01T11:16:57;5.27;;;2.07;;
12956;SDS011;6543;48.836;10.092;2023-02-01T11:19:25;5.57;;;1.63;;
12956;SDS011;6543;48.836;10.092;2023-02-01T11:21:53;5.03;;;1.53;;
12956;SDS011;6543;48.836;10.092;2023-02-01T11:24:22;3.93;;;1.80;;
12956;SDS011;6543;48.836;10.092;2023-02-01T11:26:53;7.47;;;1.80;;
12956;SDS011;6543;48.836;10.092;2023-02-01T11:29:21;4.53;;;1.93;;
12956;SDS011;6543;48.836;10.092;2023-02-01T11:31:56;3.87;;;2.13;;
12956;SDS011;6543;48.836;10.092;2023-02-01T11:34:25;7.43;;;2.30;;
12956;SDS011;6543;48.836;10.092;2023-02-01T11:36:59;6.30;;;1.70;;
12956;SDS011;6543;48.836;10.092;2023-02-01T11:39:28;6.20;;;2.17;;
12956;SDS011;6543;48.836;10.092;2023-02-01T11:41:58;4.93;;;2.20;;
12956;SDS011;6543;48.836;10.092;2023-02-01T11:44:31;5.80;;;1.70;;
12956;SDS011;6543;48.836;10.092;2023-02-01T11:47:19;5.97;;;1.90;;
12956;SDS011;6543;48.836;10.092;2023-02-01T11:49:48;6.80;;;1.60;;
12956;SDS011;6543;48.836;10.092;2023-02-01T11:52:18;6.33;;;1.70;;
12956;SDS011;6543;48.836;10.092;2023-02-01T11:54:59;6.03;;;2.23;;
12956;SDS011;6543;48.836;10.092;2023-02-01T11:57:39;5.80;;;1.73;;
12956;SDS011;6543;48.836;10.092;2023-02-01T12:00:23;5.07;;;2.03;;
12956;SDS011;6543;48.836;10.092;2023-02-01T12:03:19;8.57;;;1.37;;
12956;SDS011;6543;48.836;10.092;2023-02-01T12:06:06;7.97;;;2.10;;
12956;SDS011;6543;48.836;10.092;2023-02-01T12:08:50;8.50;;;2.20;;
12956;SDS011;6543;48.836;10.092;2023-02-01T12:11:40;8.20;;;2.63;;
12956;SDS011;6543;48.836;10.092;2023-02-01T12:14:19;6.80;;;2.67;;
12956;SDS011;6543;48.836;10.092;2023-02-01T12:16:56;7.67;;;2.83;;
12956;SDS011;6543;48.836;10.092;2023-02-01T12:19:57;7.13;;;1.80;;
12956;SDS011;6543;48.836;10.092;2023-02-01T12:22:40;6.73;;;2.10;;
12956;SDS011;6543;48.836;10.092;2023-02-01T12:25:20;6.53;;;2.30;;
12956;SDS011;6543;48.836;10.092;2023-02-01T12:28:29;6.47;;;2.37;;
12956;SDS011;6543;48.836;10.092;2023-02-01T12:31:19;8.67;;;2.47;;
12956;SDS011;6543;48.836;10.092;2023-02-01T12:34:04;5.60;;;1.57;;
12956;SDS011;6543;48.836;10.092;2023-02-01T12:36:43;7.67;;;2.20;;
12956;SDS011;6543;48.836;10.092;2023-02-01T12:39:17;6.40;;;2.17;;
12956;SDS011;6543;48.836;10.092;2023-02-01T12:41:51;5.20;;;1.67;;
12956;SDS011;6543;48.836;10.092;2023-02-01T12:44:32;6.77;;;2.60;;
12956;SDS011;6543;48.836;10.092;2023-02-01T12:47:06;5.83;;;2.17;;
12956;SDS011;6543;48.836;10.092;2023-02-01T12:49:52;6.37;;;2.10;;
12956;SDS011;6543;48.836;10.092;2023-02-01T12:52:27;9.87;;;2.53;;
12956;SDS011;6543;48.836;10.092;2023-02-01T12:55:02;12.90;;;1.80;;
12956;SDS011;6543;48.836;10.092;2023-02-01T12:57:33;14.40;;;2.00;;
12956;SDS011;6543;48.836;10.092;2023-02-01T13:00:06;9.10;;;2.37;;
12956;SDS011;6543;48.836;10.092;2023-02-01T13:02:48;10.67;;;2.00;;
12956;SDS011;6543;48.836;10.092;2023-02-01T13:05:20;7.57;;;2.77;;
12956;SDS011;6543;48.836;10.092;2023-02-01T13:07:51;7.27;;;1.73;;
12956;SDS011;6543;48.836;10.092;2023-02-01T13:10:24;4.73;;;1.70;;
12956;SDS011;6543;48.836;10.092;2023-02-01T13:12:59;12.50;;;2.13;;
12956;SDS011;6543;48.836;10.092;2023-02-01T13:15:33;7.47;;;2.57;;
12956;SDS011;6543;48.836;10.092;2023-02-01T13:18:05;6.67;;;2.10;;
12956;SDS011;6543;48.836;10.092;2023-02-01T13:20:35;5.87;;;1.50;;
12956;SDS011;6543;48.836;10.092;2023-02-01T13:23:18;5.47;;;1.90;;
12956;SDS011;6543;48.836;10.092;2023-02-01T13:25:52;9.63;;;2.73;;
12956;SDS011;6543;48.836;10.092;2023-02-01T13:28:29;9.10;;;2.23;;
12956;SDS011;6543;48.836;10.092;2023-02-01T13:31:10;5.73;;;2.20;;
12956;SDS011;6543;48.836;10.092;2023-02-01T13:34:09;9.90;;;1.90;;
12956;SDS011;6543;48.836;10.092;2023-02-01T13:36:59;12.20;;;2.53;;
12956;SDS011;6543;48.836;10.092;2023-02-01T13:42:54;7.70;;;1.87;;
12956;SDS011;6543;48.836;10.092;2023-02-01T13:45:24;6.13;;;2.10;;
12956;SDS011;6543;48.836;10.092;2023-02-01T13:47:54;4.57;;;1.77;;
12956;SDS011;6543;48.836;10.092;2023-02-01T13:50:24;8.63;;;2.90;;
12956;SDS011;6543;48.836;10.092;2023-02-01T13:52:55;6.97;;;2.43;;
12956;SDS011;6543;48.836;10.092;2023-02-01T13:55:25;9.37;;;2.80;;
12956;SDS011;6543;48.836;10.092;2023-02-01T13:58:19;9.07;;;2.03;;
12956;SDS011;6543;48.836;10.092;2023-02-01T14:00:47;15.43;;;2.30;;
12956;SDS011;6543;48.836;10.092;2023-02-01T14:03:16;7.60;;;1.43;;
12956;SDS011;6543;48.836;10.092;2023-02-01T14:06:14;8.40;;;1.80;;
12956;SDS011;6543;48.836;10.092;2023-02-01T14:09:05;6.27;;;1.87;;
12956;SDS011;6543;48.836;10.092;2023-02-01T14:11:48;11.10;;;2.10;;
12956;SDS011;6543;48.836;10.092;2023-02-01T14:23:29;7.27;;;2.00;;
12956;SDS011;6543;48.836;10.092;2023-02-01T14:26:14;9.53;;;2.93;;
12956;SDS011;6543;48.836;10.092;2023-02-01T14:28:45;11.13;;;2.50;;
12956;SDS011;6543;48.836;10.092;2023-02-01T14:34:23;10.37;;;2.30;;
12956;SDS011;6543;48.836;10.092;2023-02-01T14:36:56;9.57;;;2.77;;
12956;SDS011;6543;48.836;10.092;2023-02-01T14:39:26;9.47;;;2.73;;
12956;SDS011;6543;48.836;10.092;2023-02-01T14:42:19;8.87;;;3.07;;
12956;SDS011;6543;48.836;10.092;2023-02-01T14:44:50;11.07;;;2.93;;
12956;SDS011;6543;48.836;10.092;2023-02-01T14:47:29;5.73;;;2.17;;
12956;SDS011;6543;48.836;10.092;2023-02-01T14:50:00;8.33;;;2.40;;
12956;SDS011;6543;48.836;10.092;2023-02-01T14:55:49;10.93;;;2.73;;
12956;SDS011;6543;48.836;10.092;2023-02-01T14:58:23;11.97;;;2.77;;
12956;SDS011;6543;48.836;10.092;2023-02-01T15:00:59;8.90;;;2.90;;
12956;SDS011;6543;48.836;10.092;2023-02-01T15:03:40;4.23;;;1.43;;
12956;SDS011;6543;48.836;10.092;2023-02-01T15:06:24;5.60;;;1.90;;
12956;SDS011;6543;48.836;10.092;2023-02-01T15:08:54;17.70;;;2.77;;
12956;SDS011;6543;48.836;10.092;2023-02-01T15:11:24;4.60;;;1.30;;
12956;SDS011;6543;48.836;10.092;2023-02-01T15:13:51;12.43;;;2.17;;
12956;SDS011;6543;48.836;10.092;2023-02-01T15:16:20;6.47;;;2.67;;
12956;SDS011;6543;48.836;10.092;2023-02-01T15:18:50;10.90;;;2.83;;
12956;SDS011;6543;48.836;10.092;2023-02-01T15:21:32;5.20;;;1.67;;
12956;SDS011;6543;48.836;10.092;2023-02-01T15:24:10;5.70;;;1.70;;
12956;SDS011;6543;48.836;10.092;2023-02-01T15:26:38;8.73;;;2.73;;
12956;SDS011;6543;48.836;10.092;2023-02-01T15:29:05;9.70;;;2.37;;
12956;SDS011;6543;48.836;10.092;2023-02-01T15:31:37;7.20;;;2.03;;
12956;SDS011;6543;48.836;10.092;2023-02-01T15:34:08;7.67;;;2.37;;
12956;SDS011;6543;48.836;10.092;2023-02-01T15:36:35;9.17;;;2.50;;
12956;SDS011;6543;48.836;10.092;2023-02-01T15:39:16;11.20;;;2.80;;
12956;SDS011;6543;48.836;10.092;2023-02-01T15:41:49;10.47;;;2.40;;
12956;SDS011;6543;48.836;10.092;2023-02-01T15:44:24;9.00;;;2.67;;
12956;SDS011;6543;48.836;10.092;2023-02-01T15:46:56;8.87;;;2.77;;